createdAt,value
2022-08-12T00:00:36.799Z,3.70
2022-08-12T00:03:25.738Z,5.40
2022-08-12T00:06:14.805Z,3.70
2022-08-12T00:09:02.005Z,2.10
2022-08-12T00:11:49.390Z,2.80
2022-08-12T00:14:37.185Z,1.80
2022-08-12T00:17:24.924Z,1.90
2022-08-12T00:20:12.442Z,2.20
2022-08-12T00:23:00.310Z,13.00
2022-08-12T00:26:21.758Z,4.90
2022-08-12T00:29:07.630Z,2.70
2022-08-12T00:31:54.964Z,3.50
2022-08-12T00:34:42.103Z,3.90
2022-08-12T00:37:29.794Z,4.10
2022-08-12T00:40:16.943Z,2.60
2022-08-12T00:42:48.140Z,5.60
2022-08-12T00:45:18.184Z,2.90
2022-08-12T00:47:48.803Z,3.00
2022-08-12T00:50:19.228Z,5.00
2022-08-12T00:52:50.915Z,4.40
2022-08-12T00:55:20.841Z,6.30
2022-08-12T00:57:51.444Z,2.60
2022-08-12T01:00:23.381Z,6.20
2022-08-12T01:02:56.809Z,4.50
2022-08-12T01:05:45.026Z,7.00
2022-08-12T01:08:43.707Z,3.10
2022-08-12T01:11:32.072Z,4.90
2022-08-12T01:14:03.147Z,5.30
2022-08-12T01:16:32.400Z,5.10
2022-08-12T01:19:03.152Z,6.80
2022-08-12T01:22:04.134Z,7.20
2022-08-12T01:24:54.109Z,5.10
2022-08-12T01:27:25.220Z,6.80
2022-08-12T01:29:56.908Z,3.30
2022-08-12T01:32:28.865Z,5.10
2022-08-12T01:35:05.281Z,4.20
2022-08-12T01:37:37.433Z,8.10
2022-08-12T01:40:34.372Z,6.80
2022-08-12T01:43:06.097Z,4.70
2022-08-12T01:45:43.283Z,6.30
2022-08-12T01:48:25.108Z,7.00
2022-08-12T01:52:14.831Z,3.30
2022-08-12T01:54:06.956Z,3.60
2022-08-12T01:56:45.928Z,3.10
2022-08-12T01:59:38.429Z,3.70
2022-08-12T02:02:16.160Z,5.80
2022-08-12T02:05:19.888Z,3.90
2022-08-12T02:08:16.447Z,4.20
2022-08-12T02:11:17.148Z,5.00
2022-08-12T02:14:10.446Z,7.40
2022-08-12T02:16:58.631Z,4.60
2022-08-12T02:19:54.043Z,4.10
2022-08-12T02:22:29.163Z,15.40
2022-08-12T02:25:06.691Z,7.20
2022-08-12T02:27:39.367Z,4.40
2022-08-12T02:30:12.592Z,3.50
2022-08-12T02:32:44.800Z,6.10
2022-08-12T02:35:16.938Z,4.00
2022-08-12T02:37:47.916Z,3.50
2022-08-12T02:40:19.078Z,4.40
2022-08-12T02:42:53.279Z,6.40
2022-08-12T02:45:27.310Z,5.40
2022-08-12T02:48:01.561Z,4.20
2022-08-12T02:50:34.091Z,4.30
2022-08-12T02:53:04.938Z,6.20
2022-08-12T02:55:36.018Z,4.70
2022-08-12T02:58:09.029Z,5.20
2022-08-12T03:00:42.570Z,5.10
2022-08-12T03:03:12.960Z,4.90
2022-08-12T03:05:48.534Z,8.10
2022-08-12T03:08:32.562Z,5.10
2022-08-12T03:11:06.259Z,4.50
2022-08-12T03:13:46.414Z,4.20
2022-08-12T03:16:15.845Z,5.60
2022-08-12T03:18:46.155Z,8.40
2022-08-12T03:21:52.870Z,11.40
2022-08-12T03:24:08.952Z,4.90
2022-08-12T03:26:39.270Z,5.20
2022-08-12T03:29:09.170Z,5.20
2022-08-12T03:31:38.069Z,8.20
2022-08-12T03:34:08.404Z,7.40
2022-08-12T03:36:39.426Z,8.10
2022-08-12T03:39:35.820Z,5.00
2022-08-12T03:42:25.625Z,6.90
2022-08-12T03:45:30.639Z,4.00
2022-08-12T03:48:21.246Z,7.30
2022-08-12T03:51:09.619Z,6.20
2022-08-12T03:53:58.308Z,5.40
2022-08-12T03:56:45.371Z,6.50
2022-08-12T03:59:33.131Z,6.20
2022-08-12T04:02:01.973Z,4.10
2022-08-12T04:04:33.560Z,9.40
2022-08-12T04:07:06.032Z,4.70
2022-08-12T04:09:37.827Z,5.80
2022-08-12T04:12:32.336Z,9.20
2022-08-12T04:15:02.603Z,7.00
2022-08-12T04:17:33.362Z,13.50
2022-08-12T04:20:02.595Z,5.50
2022-08-12T04:22:32.035Z,6.30
2022-08-12T04:25:01.632Z,5.90
2022-08-12T04:27:31.668Z,5.10
2022-08-12T04:30:31.590Z,4.60
2022-08-12T04:32:51.572Z,9.30
2022-08-12T04:35:22.118Z,8.10
2022-08-12T04:37:59.909Z,6.00
2022-08-12T04:40:31.874Z,8.40
2022-08-12T04:43:01.796Z,7.50
2022-08-12T04:45:31.997Z,8.30
2022-08-12T04:48:01.994Z,6.80
2022-08-12T04:50:36.034Z,6.80
2022-08-12T04:53:08.222Z,8.80
2022-08-12T04:55:38.494Z,5.40
2022-08-12T04:58:08.275Z,12.10
2022-08-12T05:00:37.867Z,6.50
2022-08-12T05:03:07.338Z,8.50
2022-08-12T05:05:37.776Z,4.30
2022-08-12T05:08:11.909Z,8.90
2022-08-12T05:10:40.918Z,5.60
2022-08-12T05:13:12.240Z,11.50
2022-08-12T05:16:05.219Z,8.60
2022-08-12T05:18:31.268Z,13.60
2022-08-12T05:21:00.130Z,10.20
2022-08-12T05:23:31.457Z,7.90
2022-08-12T05:26:00.563Z,10.90
2022-08-12T05:28:30.614Z,9.60
2022-08-12T05:31:01.631Z,7.80
2022-08-12T05:33:36.938Z,15.20
2022-08-12T05:36:07.744Z,6.50
2022-08-12T05:38:55.595Z,6.00
2022-08-12T05:41:26.609Z,8.40
2022-08-12T05:43:57.101Z,6.50
2022-08-12T05:46:27.663Z,7.90
2022-08-12T05:48:58.456Z,8.20
2022-08-12T05:51:39.788Z,8.60
2022-08-12T05:54:15.797Z,10.80
2022-08-12T05:56:45.114Z,7.10
2022-08-12T05:59:14.131Z,7.20
2022-08-12T06:02:10.462Z,12.30
2022-08-12T06:04:32.948Z,4.70
2022-08-12T06:07:02.087Z,10.40
2022-08-12T06:09:51.158Z,12.20
2022-08-12T06:12:20.921Z,8.40
2022-08-12T06:14:49.749Z,7.30
2022-08-12T06:17:18.845Z,4.20
2022-08-12T06:20:26.055Z,3.30
2022-08-12T06:22:39.068Z,5.50
2022-08-12T06:25:09.359Z,4.00
2022-08-12T06:28:06.496Z,11.90
2022-08-12T06:30:39.050Z,6.40
2022-08-12T06:33:22.088Z,3.80
2022-08-12T06:35:53.171Z,10.00
2022-08-12T06:38:28.732Z,4.50
2022-08-12T06:41:17.809Z,11.30
2022-08-12T06:44:04.728Z,10.20
2022-08-12T06:46:38.201Z,9.10
2022-08-12T06:49:11.853Z,8.20
2022-08-12T06:51:40.780Z,6.30
2022-08-12T06:54:10.898Z,5.10
2022-08-12T06:57:03.040Z,5.30
2022-08-12T06:59:28.546Z,7.20
2022-08-12T07:01:57.422Z,6.40
2022-08-12T07:04:36.251Z,2.50
2022-08-12T07:07:07.491Z,3.20
2022-08-12T07:10:04.158Z,5.50
2022-08-12T07:12:27.798Z,2.70
2022-08-12T07:14:58.337Z,6.80
2022-08-12T07:17:36.983Z,5.70
2022-08-12T07:20:29.817Z,3.70
2022-08-12T07:23:03.127Z,5.10
2022-08-12T07:25:41.127Z,5.90
2022-08-12T07:28:16.078Z,5.50
2022-08-12T07:30:48.638Z,6.00
2022-08-12T07:33:19.262Z,6.40
2022-08-12T07:35:49.133Z,4.40
2022-08-12T07:38:29.233Z,8.40
2022-08-12T07:41:05.056Z,7.30
2022-08-12T07:43:36.533Z,9.80
2022-08-12T07:46:12.446Z,7.20
2022-08-12T07:48:43.746Z,7.50
2022-08-12T07:51:25.256Z,6.90
2022-08-12T07:54:00.509Z,3.80
2022-08-12T07:56:32.171Z,9.20
2022-08-12T07:59:02.393Z,8.70
2022-08-12T08:01:32.779Z,7.10
2022-08-12T08:04:20.487Z,6.20
2022-08-12T08:06:50.561Z,4.30
2022-08-12T08:09:21.747Z,2.90
2022-08-12T08:12:09.145Z,6.40
2022-08-12T08:14:38.990Z,3.70
2022-08-12T08:17:10.945Z,4.30
2022-08-12T08:20:01.906Z,3.40
2022-08-12T08:22:41.455Z,2.80
2022-08-12T08:25:35.013Z,5.70
2022-08-12T08:28:04.192Z,4.50
2022-08-12T08:30:34.732Z,4.40
2022-08-12T08:33:17.274Z,3.50
2022-08-12T08:35:54.699Z,2.90
2022-08-12T08:38:33.085Z,4.60
2022-08-12T08:42:16.661Z,5.20
2022-08-12T08:44:12.096Z,4.70
2022-08-12T08:46:43.904Z,6.20
2022-08-12T08:49:15.237Z,3.40
2022-08-12T08:51:45.574Z,7.60
2022-08-12T08:54:14.445Z,2.10
2022-08-12T08:56:45.717Z,1.90
2022-08-12T08:59:16.159Z,6.30
2022-08-12T09:01:45.883Z,5.60
2022-08-12T09:05:09.046Z,24.70
2022-08-12T09:07:16.556Z,2.80
2022-08-12T09:10:02.741Z,6.00
2022-08-12T09:12:55.121Z,6.20
2022-08-12T09:18:15.204Z,3.10
2022-08-12T09:20:44.657Z,3.80
2022-08-12T09:26:09.763Z,6.50
2022-08-12T09:28:40.512Z,3.50
2022-08-12T09:32:03.760Z,4.30
2022-08-12T09:34:27.994Z,5.20
2022-08-12T09:36:58.041Z,3.50
2022-08-12T09:40:06.285Z,3.20
2022-08-12T09:42:43.318Z,3.30
2022-08-12T09:45:24.714Z,4.40
2022-08-12T09:48:20.306Z,2.30
2022-08-12T09:50:55.314Z,5.50
2022-08-12T09:53:29.426Z,5.60
2022-08-12T09:56:59.580Z,11.20
2022-08-12T09:59:09.664Z,3.90
2022-08-12T10:02:45.636Z,8.20
2022-08-12T10:04:30.373Z,6.20
2022-08-12T10:06:59.320Z,2.50
2022-08-12T10:09:58.395Z,3.10
2022-08-12T10:12:36.806Z,3.80
2022-08-12T10:15:07.334Z,3.40
2022-08-12T10:17:36.353Z,6.30
2022-08-12T10:20:25.054Z,3.50
2022-08-12T10:22:59.568Z,3.30
2022-08-12T10:29:02.761Z,9.10
2022-08-12T10:32:01.634Z,2.80
2022-08-12T10:34:26.443Z,4.40
2022-08-12T10:36:58.512Z,5.40
2022-08-12T10:40:02.150Z,4.80
2022-08-12T10:42:51.240Z,5.50
2022-08-12T10:45:20.270Z,12.20
2022-08-12T10:48:07.640Z,2.80
2022-08-12T10:50:56.674Z,3.10
2022-08-12T10:53:45.742Z,42.50
2022-08-12T10:58:47.087Z,8.10
2022-08-12T11:01:48.856Z,3.30
2022-08-12T11:04:35.794Z,5.70
2022-08-12T11:07:08.564Z,5.10
2022-08-12T11:09:59.602Z,5.50
2022-08-12T11:12:55.745Z,3.50
2022-08-12T11:15:33.314Z,2.70
2022-08-12T11:18:18.009Z,6.60
2022-08-12T11:20:49.200Z,4.00
2022-08-12T11:23:24.671Z,3.90
2022-08-12T11:26:06.925Z,5.80
2022-08-12T11:28:38.230Z,3.60
2022-08-12T11:31:12.272Z,2.60
2022-08-12T11:34:06.465Z,3.40
2022-08-12T11:36:32.973Z,3.40
2022-08-12T11:39:08.203Z,3.00
2022-08-12T11:41:43.101Z,2.30
2022-08-12T11:44:36.723Z,5.20
2022-08-12T11:47:01.360Z,3.80
2022-08-12T11:49:32.852Z,4.70
2022-08-12T11:52:03.599Z,4.00
2022-08-12T11:54:33.432Z,5.30
2022-08-12T11:58:03.881Z,4.30
2022-08-12T12:02:41.181Z,3.10
2022-08-12T12:05:10.504Z,7.60
2022-08-12T12:08:38.333Z,5.30
2022-08-12T12:10:32.407Z,4.30
2022-08-12T12:13:04.128Z,4.50
2022-08-12T12:15:41.410Z,3.80
2022-08-12T12:18:22.446Z,5.40
2022-08-12T12:21:01.678Z,3.80
2022-08-12T12:23:36.113Z,4.80
2022-08-12T12:26:08.570Z,5.20
2022-08-12T12:28:54.352Z,7.40
2022-08-12T12:32:09.257Z,3.80
2022-08-12T12:34:30.699Z,6.40
2022-08-12T12:37:00.882Z,5.60
2022-08-12T12:39:55.166Z,5.50
2022-08-12T12:42:52.105Z,3.00
2022-08-12T12:45:19.131Z,8.90
2022-08-12T12:48:00.001Z,3.30
2022-08-12T12:50:35.946Z,6.00
2022-08-12T12:54:05.758Z,2.90
2022-08-12T12:56:12.631Z,3.50
2022-08-12T13:01:25.597Z,3.20
2022-08-12T13:04:02.167Z,6.30
2022-08-12T13:06:32.079Z,4.20
2022-08-12T13:09:03.622Z,6.90
2022-08-12T13:11:41.535Z,11.20
2022-08-12T13:14:29.571Z,5.20
2022-08-12T13:17:00.880Z,4.00
2022-08-12T13:19:38.704Z,5.00
2022-08-12T13:22:18.180Z,4.40
2022-08-12T13:24:54.954Z,1.80
2022-08-12T13:27:34.479Z,4.30
2022-08-12T13:30:11.092Z,5.20
2022-08-12T13:32:56.804Z,4.70
2022-08-12T13:36:02.934Z,3.30
2022-08-12T13:38:16.030Z,7.10
2022-08-12T13:40:57.892Z,2.50
2022-08-12T13:43:40.865Z,5.20
2022-08-12T13:46:13.415Z,5.50
2022-08-12T13:48:44.689Z,2.80
2022-08-12T13:51:14.431Z,4.80
2022-08-12T13:53:57.605Z,2.70
2022-08-12T13:56:35.115Z,2.60
2022-08-12T13:59:07.956Z,4.70
2022-08-12T14:01:40.087Z,4.30
2022-08-12T14:04:11.719Z,2.20
2022-08-12T14:06:41.238Z,3.00
2022-08-12T14:09:15.660Z,2.80
2022-08-12T14:11:58.687Z,6.30
2022-08-12T14:14:31.417Z,2.60
2022-08-12T14:17:09.834Z,6.20
2022-08-12T14:20:01.027Z,4.40
2022-08-12T14:22:31.671Z,2.90
2022-08-12T14:25:01.286Z,4.70
2022-08-12T14:28:04.376Z,2.80
2022-08-12T14:30:28.787Z,4.00
2022-08-12T14:33:03.046Z,7.00
2022-08-12T14:35:34.048Z,15.80
2022-08-12T14:38:15.732Z,4.20
2022-08-12T14:40:45.099Z,8.00
2022-08-12T14:43:14.064Z,7.80
2022-08-12T14:45:49.285Z,9.30
2022-08-12T14:48:24.520Z,4.00
2022-08-12T14:52:10.527Z,3.40
2022-08-12T14:59:58.399Z,3.70
2022-08-12T15:02:28.046Z,6.90
2022-08-12T15:04:59.692Z,5.50
2022-08-12T15:07:34.469Z,3.20
2022-08-12T15:10:32.029Z,6.00
2022-08-12T15:13:07.213Z,8.30
2022-08-12T15:18:14.768Z,3.70
2022-08-12T15:20:43.576Z,6.40
2022-08-12T15:23:17.998Z,5.80
2022-08-12T15:26:00.096Z,5.20
2022-08-12T15:28:34.687Z,5.90
2022-08-12T15:31:21.364Z,7.40
2022-08-12T15:33:57.933Z,6.50
2022-08-12T15:36:54.438Z,4.70
2022-08-12T15:39:17.269Z,7.10
2022-08-12T15:41:49.421Z,2.80
2022-08-12T15:44:37.856Z,3.70
2022-08-12T15:47:08.856Z,5.60
2022-08-12T15:49:55.032Z,5.50
2022-08-12T15:52:28.589Z,6.20
2022-08-12T15:54:59.374Z,3.90
2022-08-12T15:57:35.407Z,3.00
2022-08-12T16:00:09.264Z,3.10
2022-08-12T16:02:52.333Z,8.10
2022-08-12T16:06:15.536Z,4.70
2022-08-12T16:08:19.743Z,3.10
2022-08-12T16:10:56.793Z,14.50
2022-08-12T16:13:34.469Z,10.90
2022-08-12T16:16:22.579Z,11.60
2022-08-12T16:18:56.644Z,12.60
2022-08-12T16:21:52.971Z,13.90
2022-08-12T16:24:14.568Z,11.70
2022-08-12T16:26:45.179Z,19.20
2022-08-12T16:29:24.947Z,18.40
2022-08-12T16:31:55.617Z,19.60
2022-08-12T16:34:26.116Z,14.50
2022-08-12T16:37:13.464Z,22.00
2022-08-12T16:40:00.883Z,13.90
2022-08-12T16:42:31.303Z,14.20
2022-08-12T16:45:03.076Z,13.50
2022-08-12T16:47:58.823Z,23.30
2022-08-12T16:50:22.236Z,18.20
2022-08-12T16:53:02.275Z,14.30
2022-08-12T16:55:41.918Z,16.30
2022-08-12T16:58:28.524Z,14.10
2022-08-12T17:01:01.981Z,13.80
2022-08-12T17:03:37.592Z,14.30
2022-08-12T17:06:09.951Z,14.00
2022-08-12T17:08:40.007Z,18.10
2022-08-12T17:11:18.324Z,13.80
2022-08-12T17:13:53.533Z,17.60
2022-08-12T17:16:24.008Z,12.50
2022-08-12T17:18:57.538Z,16.10
2022-08-12T17:24:22.483Z,12.70
2022-08-12T17:27:00.763Z,12.30
2022-08-12T17:30:00.901Z,13.00
2022-08-12T17:32:25.676Z,12.20
2022-08-12T17:35:15.559Z,12.60
2022-08-12T17:37:47.955Z,12.70
2022-08-12T17:40:36.359Z,12.00
2022-08-12T17:43:57.873Z,11.50
2022-08-12T17:46:00.126Z,13.10
2022-08-12T17:48:34.942Z,11.90
2022-08-12T17:51:12.310Z,13.80
2022-08-12T17:54:05.712Z,13.30
2022-08-12T17:56:36.844Z,10.80
2022-08-12T17:59:08.988Z,11.20
2022-08-12T18:01:39.439Z,12.10
2022-08-12T18:04:22.763Z,13.00
2022-08-12T18:06:57.687Z,22.00
2022-08-12T18:09:32.226Z,13.50
2022-08-12T18:12:26.661Z,15.70
2022-08-12T18:14:59.866Z,11.00
2022-08-12T18:17:29.988Z,14.90
2022-08-12T18:20:06.589Z,13.80
2022-08-12T18:22:38.716Z,11.50
2022-08-12T18:26:15.514Z,11.80
2022-08-12T18:28:16.582Z,11.60
2022-08-12T18:30:52.285Z,12.50
2022-08-12T18:33:24.367Z,11.70
2022-08-12T18:35:55.333Z,12.50
2022-08-12T18:38:27.159Z,10.70
2022-08-12T18:41:21.042Z,12.80
2022-08-12T18:43:58.588Z,12.40
2022-08-12T18:46:45.240Z,14.70
2022-08-12T18:49:19.391Z,12.20
2022-08-12T18:51:55.024Z,12.50
2022-08-12T18:54:26.672Z,14.30
2022-08-12T18:57:00.409Z,14.30
2022-08-12T19:00:01.851Z,14.20
2022-08-12T19:02:21.769Z,12.40
2022-08-12T19:04:53.129Z,13.70
2022-08-12T19:07:24.498Z,15.20
2022-08-12T19:09:59.146Z,14.50
2022-08-12T19:12:55.336Z,17.20
2022-08-12T19:15:24.950Z,13.40
2022-08-12T19:17:56.809Z,14.40
2022-08-12T19:20:31.027Z,13.00
2022-08-12T19:23:07.486Z,16.60
2022-08-12T19:26:00.605Z,14.40
2022-08-12T19:28:35.698Z,12.80
2022-08-12T19:31:55.960Z,15.90
2022-08-12T19:34:56.317Z,15.50
2022-08-12T19:37:20.466Z,15.00
2022-08-12T19:40:07.820Z,14.60
2022-08-12T19:42:44.874Z,14.30
2022-08-12T19:45:17.395Z,14.30
2022-08-12T19:47:46.163Z,13.60
2022-08-12T19:50:19.686Z,14.00
2022-08-12T19:52:53.382Z,16.50
2022-08-12T19:55:26.164Z,17.10
2022-08-12T19:58:02.226Z,13.00
2022-08-12T20:00:42.985Z,13.90
2022-08-12T20:03:39.459Z,17.10
2022-08-12T20:06:06.375Z,18.10
2022-08-12T20:08:37.695Z,13.90
2022-08-12T20:12:14.575Z,17.30
2022-08-12T20:14:01.291Z,15.70
2022-08-12T20:16:52.685Z,15.70
2022-08-12T20:19:52.315Z,13.70
2022-08-12T20:22:24.584Z,15.00
2022-08-12T20:25:01.481Z,14.00
2022-08-12T20:28:04.884Z,14.60
2022-08-12T20:30:38.162Z,12.90
2022-08-12T20:33:17.774Z,13.30
2022-08-12T20:36:06.741Z,15.60
2022-08-12T20:38:40.176Z,14.20
2022-08-12T20:41:17.849Z,13.70
2022-08-12T20:43:49.851Z,13.70
2022-08-12T20:46:20.086Z,15.50
2022-08-12T20:48:55.111Z,13.50
2022-08-12T20:51:50.962Z,14.60
2022-08-12T20:54:18.984Z,12.90
2022-08-12T20:56:49.306Z,13.10
2022-08-12T20:59:20.049Z,13.50
2022-08-12T21:01:53.906Z,14.80
2022-08-12T21:04:43.823Z,14.40
2022-08-12T21:07:13.543Z,12.90
2022-08-12T21:09:46.939Z,13.90
2022-08-12T21:12:31.574Z,14.70
2022-08-12T21:15:22.811Z,13.20
2022-08-12T21:18:11.741Z,12.40
2022-08-12T21:20:54.505Z,14.70
2022-08-12T21:23:23.888Z,13.40
2022-08-12T21:25:55.548Z,15.20
2022-08-12T21:28:27.563Z,13.40
2022-08-12T21:32:37.728Z,13.40
2022-08-12T21:34:07.260Z,14.60
2022-08-12T21:36:40.413Z,13.30
2022-08-12T21:39:21.400Z,12.60
2022-08-12T21:41:53.299Z,19.30
2022-08-12T21:45:44.559Z,12.90
2022-08-12T21:47:21.179Z,13.30
2022-08-12T21:50:02.520Z,12.80
2022-08-12T21:52:34.926Z,17.00
2022-08-12T21:55:18.861Z,15.30
2022-08-12T21:57:54.328Z,14.20
2022-08-12T22:00:32.284Z,13.80
2022-08-12T22:04:01.646Z,13.20
2022-08-12T22:06:20.015Z,12.70
2022-08-12T22:08:57.800Z,14.30
2022-08-12T22:11:41.904Z,14.20
2022-08-12T22:14:21.426Z,12.30
2022-08-12T22:16:53.435Z,15.40
2022-08-12T22:19:22.858Z,12.40
2022-08-12T22:21:54.955Z,17.80
2022-08-12T22:24:26.257Z,14.70
2022-08-12T22:27:18.083Z,17.10
2022-08-12T22:30:07.640Z,18.00
2022-08-12T22:32:47.420Z,13.20
2022-08-12T22:35:47.258Z,15.20
2022-08-12T22:38:23.003Z,15.00
2022-08-12T22:40:53.843Z,13.60
2022-08-12T22:43:59.079Z,12.10
2022-08-12T22:46:52.560Z,17.40
2022-08-12T22:49:36.597Z,13.30
2022-08-12T22:52:13.550Z,14.10
2022-08-12T22:54:46.323Z,14.60
2022-08-12T22:57:49.376Z,15.90
2022-08-12T23:00:27.213Z,13.90
2022-08-12T23:03:02.997Z,14.40
2022-08-12T23:05:57.388Z,14.90
2022-08-12T23:08:30.034Z,12.30
2022-08-12T23:11:00.624Z,14.70
2022-08-12T23:13:55.515Z,20.70
2022-08-12T23:16:31.461Z,12.70
2022-08-12T23:19:10.602Z,12.60
2022-08-12T23:22:06.044Z,13.20
2022-08-12T23:24:53.817Z,14.40
2022-08-12T23:27:51.861Z,14.50
2022-08-12T23:30:31.924Z,14.10
2022-08-12T23:33:13.232Z,14.30
2022-08-12T23:35:58.846Z,15.10
2022-08-12T23:38:33.931Z,13.10
2022-08-12T23:41:04.939Z,14.10
2022-08-12T23:43:38.861Z,13.30
2022-08-12T23:46:19.107Z,13.90
2022-08-12T23:48:50.378Z,13.30
2022-08-12T23:51:24.308Z,13.40
2022-08-12T23:54:01.480Z,15.30
2022-08-12T23:56:32.314Z,12.80
2022-08-12T23:59:01.302Z,14.00
